createdAt,value
2019-04-01T00:01:43.822Z,29.03
2019-04-01T00:04:14.485Z,31.03
2019-04-01T00:06:44.854Z,32.00
2019-04-01T00:09:15.221Z,31.40
2019-04-01T00:11:45.691Z,32.10
2019-04-01T00:14:16.985Z,32.20
2019-04-01T00:16:47.355Z,31.90
2019-04-01T00:19:17.701Z,31.70
2019-04-01T00:21:48.081Z,33.13
2019-04-01T00:24:18.411Z,32.17
2019-04-01T00:26:48.806Z,32.93
2019-04-01T00:29:19.242Z,32.53
2019-04-01T00:31:49.631Z,33.30
2019-04-01T00:34:19.973Z,33.87
2019-04-01T00:36:50.525Z,33.50
2019-04-01T00:39:20.872Z,34.17
2019-04-01T00:42:15.947Z,34.80
2019-04-01T00:44:46.284Z,34.97
2019-04-01T00:47:16.639Z,32.07
2019-04-01T00:49:48.804Z,36.53
2019-04-01T00:52:19.179Z,34.40
2019-04-01T00:54:49.612Z,36.03
2019-04-01T00:57:19.988Z,36.57
2019-04-01T00:59:50.326Z,35.90
2019-04-01T01:02:20.699Z,33.67
2019-04-01T01:04:51.079Z,36.83
2019-04-01T01:07:21.468Z,36.60
2019-04-01T01:09:51.877Z,36.77
2019-04-01T01:12:23.420Z,37.00
2019-04-01T01:14:53.779Z,37.13
2019-04-01T01:17:24.145Z,36.63
2019-04-01T01:19:54.492Z,36.37
2019-04-01T01:22:24.865Z,37.60
2019-04-01T01:24:55.207Z,36.87
2019-04-01T01:27:25.603Z,38.20
2019-04-01T01:29:55.969Z,38.83
2019-04-01T01:32:26.335Z,37.77
2019-04-01T01:34:57.743Z,38.93
2019-04-01T01:37:28.305Z,37.10
2019-04-01T01:39:58.643Z,37.17
2019-04-01T01:42:29.010Z,38.00
2019-04-01T01:44:59.437Z,39.17
2019-04-01T01:47:29.822Z,39.23
2019-04-01T01:50:00.365Z,38.27
2019-04-01T01:52:31.915Z,38.30
2019-04-01T01:55:02.295Z,38.87
2019-04-01T01:57:32.763Z,36.93
2019-04-01T02:00:03.119Z,38.90
2019-04-01T02:02:34.163Z,39.07
2019-04-01T02:05:04.893Z,39.80
2019-04-01T02:07:35.289Z,39.47
2019-04-01T02:10:06.748Z,41.00
2019-04-01T02:12:37.118Z,40.00
2019-04-01T02:15:07.590Z,39.57
2019-04-01T02:17:38.020Z,40.93
2019-04-01T02:20:08.485Z,41.47
2019-04-01T02:22:40.509Z,39.50
2019-04-01T02:25:12.132Z,40.57
2019-04-01T02:27:42.509Z,40.00
2019-04-01T02:30:12.876Z,39.97
2019-04-01T02:32:43.238Z,40.97
2019-04-01T02:35:13.615Z,40.97
2019-04-01T02:37:44.012Z,40.63
2019-04-01T02:40:14.334Z,41.33
2019-04-01T02:42:44.707Z,39.90
2019-04-01T02:45:16.356Z,41.17
2019-04-01T02:47:46.712Z,39.93
2019-04-01T02:50:17.061Z,39.93
2019-04-01T02:52:47.405Z,41.67
2019-04-01T02:55:17.807Z,40.77
2019-04-01T02:57:48.186Z,40.17
2019-04-01T03:00:18.907Z,41.23
2019-04-01T03:02:49.267Z,40.60
2019-04-01T03:05:19.628Z,40.60
2019-04-01T03:07:50.035Z,41.93
2019-04-01T03:10:20.369Z,42.63
2019-04-01T03:12:50.727Z,40.80
2019-04-01T03:15:21.073Z,42.77
2019-04-01T03:17:51.429Z,42.03
2019-04-01T03:20:21.758Z,41.93
2019-04-01T03:22:52.128Z,42.43
2019-04-01T03:25:22.439Z,42.87
2019-04-01T03:27:52.811Z,41.77
2019-04-01T03:30:23.153Z,42.20
2019-04-01T03:32:53.515Z,41.97
2019-04-01T03:35:23.855Z,42.00
2019-04-01T03:37:54.207Z,39.67
2019-04-01T03:40:24.553Z,43.27
2019-04-01T03:42:54.928Z,42.53
2019-04-01T03:45:25.248Z,41.87
2019-04-01T03:47:55.624Z,41.90
2019-04-01T03:50:26.338Z,42.27
2019-04-01T03:52:56.699Z,42.07
2019-04-01T03:55:27.045Z,42.10
2019-04-01T03:57:57.449Z,42.97
2019-04-01T04:00:27.778Z,41.00
2019-04-01T04:02:58.112Z,43.40
2019-04-01T04:05:28.443Z,41.93
2019-04-01T04:07:58.768Z,42.63
2019-04-01T04:10:29.187Z,41.77
2019-04-01T04:12:59.580Z,43.50
2019-04-01T04:15:29.984Z,42.47
2019-04-01T04:18:00.361Z,42.60
2019-04-01T04:20:30.715Z,42.30
2019-04-01T04:23:01.120Z,42.53
2019-04-01T04:25:31.444Z,42.77
2019-04-01T04:28:01.844Z,43.97
2019-04-01T04:30:32.139Z,43.37
2019-04-01T04:33:02.485Z,42.93
2019-04-01T04:35:32.948Z,42.47
2019-04-01T04:38:03.407Z,43.97
2019-04-01T04:40:34.653Z,42.77
2019-04-01T04:43:04.987Z,40.63
2019-04-01T04:45:35.468Z,42.67
2019-04-01T04:48:05.883Z,43.47
2019-04-01T04:50:36.261Z,41.03
2019-04-01T04:53:06.807Z,43.17
2019-04-01T04:55:37.178Z,42.90
2019-04-01T04:58:07.512Z,42.43
2019-04-01T05:00:38.091Z,42.25
2019-04-01T05:03:08.456Z,41.97
2019-04-01T05:05:38.826Z,44.00
2019-04-01T05:08:09.199Z,42.80
2019-04-01T05:10:39.597Z,43.50
2019-04-01T05:13:09.942Z,44.37
2019-04-01T05:15:40.402Z,42.80
2019-04-01T05:18:10.758Z,43.77
2019-04-01T05:20:42.403Z,44.30
2019-04-01T05:23:13.556Z,43.17
2019-04-01T05:25:45.502Z,43.03
2019-04-01T05:28:17.056Z,44.10
2019-04-01T05:30:48.984Z,42.40
2019-04-01T05:33:22.513Z,44.07
2019-04-01T05:35:52.895Z,42.30
2019-04-01T05:38:24.317Z,42.97
2019-04-01T05:40:55.089Z,44.33
2019-04-01T05:43:25.638Z,43.97
2019-04-01T05:45:56.019Z,38.63
2019-04-01T05:48:29.754Z,43.77
2019-04-01T05:51:00.124Z,42.60
2019-04-01T05:53:30.966Z,43.00
2019-04-01T05:56:01.326Z,42.83
2019-04-01T05:58:31.662Z,42.10
2019-04-01T06:01:12.419Z,42.63
2019-04-01T06:03:44.118Z,42.67
2019-04-01T06:06:14.488Z,42.33
2019-04-01T06:08:45.127Z,41.93
2019-04-01T06:11:17.123Z,42.13
2019-04-01T06:13:47.482Z,41.53
2019-04-01T06:16:17.859Z,41.43
2019-04-01T06:18:48.282Z,41.87
2019-04-01T06:21:18.643Z,40.53
2019-04-01T06:23:49.005Z,40.40
2019-04-01T06:26:19.368Z,41.07
2019-04-01T06:28:50.598Z,41.93
2019-04-01T06:31:20.975Z,40.17
2019-04-01T06:33:54.802Z,40.53
2019-04-01T06:36:25.137Z,41.00
2019-04-01T06:38:55.516Z,40.33
2019-04-01T06:41:26.801Z,39.27
2019-04-01T06:43:57.219Z,39.00
2019-04-01T06:46:27.594Z,41.10
2019-04-01T06:48:58.042Z,40.97
2019-04-01T06:51:28.444Z,38.50
2019-04-01T06:53:58.790Z,39.23
2019-04-01T06:56:29.170Z,39.00
2019-04-01T06:58:59.494Z,39.23
2019-04-01T07:01:31.948Z,38.47
2019-04-01T07:04:02.296Z,38.73
2019-04-01T07:06:32.666Z,34.60
2019-04-01T07:09:06.087Z,38.27
2019-04-01T07:11:36.480Z,39.23
2019-04-01T07:14:06.987Z,38.10
2019-04-01T07:16:40.035Z,39.30
2019-04-01T07:19:09.704Z,38.03
2019-04-01T07:21:40.075Z,38.83
2019-04-01T07:24:10.421Z,39.47
2019-04-01T07:26:40.965Z,35.13
2019-04-01T07:29:11.522Z,39.77
2019-04-01T07:31:41.897Z,38.70
2019-04-01T07:34:12.352Z,39.00
2019-04-01T07:36:42.808Z,38.10
2019-04-01T07:39:13.168Z,37.43
2019-04-01T07:41:43.527Z,39.37
2019-04-01T07:44:13.922Z,36.83
2019-04-01T07:46:44.492Z,37.83
2019-04-01T07:49:14.833Z,35.93
2019-04-01T07:51:45.220Z,37.20
2019-04-01T07:54:18.364Z,38.60
2019-04-01T07:56:48.152Z,36.83
2019-04-01T07:59:18.692Z,37.57
2019-04-01T08:01:52.588Z,36.90
2019-04-01T08:04:21.032Z,38.03
2019-04-01T08:06:52.537Z,38.23
2019-04-01T08:09:23.965Z,37.73
2019-04-01T08:11:54.364Z,38.00
2019-04-01T08:14:25.106Z,38.67
2019-04-01T08:16:58.427Z,38.43
2019-04-01T08:19:27.533Z,37.43
2019-04-01T08:21:58.016Z,37.47
2019-04-01T08:24:28.347Z,38.10
2019-04-01T08:26:58.859Z,38.47
2019-04-01T08:29:30.743Z,36.80
2019-04-01T08:32:01.296Z,35.57
2019-04-01T08:34:31.646Z,35.73
2019-04-01T08:37:02.003Z,37.27
2019-04-01T08:39:32.963Z,37.43
2019-04-01T08:42:04.095Z,33.67
2019-04-01T08:44:34.489Z,36.87
2019-04-01T08:47:04.975Z,36.13
2019-04-01T08:49:35.429Z,35.90
2019-04-01T08:52:06.150Z,35.33
2019-04-01T08:54:36.527Z,37.13
2019-04-01T08:57:07.024Z,35.93
2019-04-01T08:59:37.584Z,37.53
2019-04-01T09:02:17.625Z,34.23
2019-04-01T09:04:39.936Z,33.27
2019-04-01T09:07:10.707Z,37.30
2019-04-01T09:09:41.520Z,32.10
2019-04-01T09:12:12.129Z,33.70
2019-04-01T09:14:42.641Z,35.27
2019-04-01T09:17:13.441Z,36.53
2019-04-01T09:19:43.956Z,34.93
2019-04-01T09:22:14.376Z,35.40
2019-04-01T09:24:44.779Z,35.80
2019-04-01T09:27:15.195Z,33.90
2019-04-01T09:29:45.736Z,33.63
2019-04-01T09:32:16.194Z,36.10
2019-04-01T09:34:46.607Z,33.50
2019-04-01T09:37:17.063Z,31.97
2019-04-01T09:39:47.452Z,35.07
2019-04-01T09:42:17.949Z,32.67
2019-04-01T09:44:48.389Z,35.87
2019-04-01T09:47:18.750Z,32.23
2019-04-01T09:49:49.191Z,34.87
2019-04-01T09:52:19.515Z,33.83
2019-04-01T09:54:49.866Z,34.40
2019-04-01T09:57:20.216Z,31.13
2019-04-01T09:59:50.674Z,35.30
2019-04-01T10:02:31.641Z,34.63
2019-04-01T10:04:54.289Z,32.47
2019-04-01T10:07:24.701Z,33.40
2019-04-01T10:09:55.158Z,31.70
2019-04-01T10:12:25.552Z,34.20
2019-04-01T10:14:55.919Z,30.60
2019-04-01T10:17:26.250Z,33.03
2019-04-01T10:20:00.701Z,30.67
2019-04-01T10:22:29.789Z,32.50
2019-04-01T10:25:00.410Z,30.97
2019-04-01T10:27:30.780Z,33.93
2019-04-01T10:30:01.190Z,32.13
2019-04-01T10:32:31.713Z,31.23
2019-04-01T10:35:03.046Z,30.20
2019-04-01T10:37:33.455Z,32.27
2019-04-01T10:40:03.962Z,30.00
2019-04-01T10:42:34.392Z,30.33
2019-04-01T10:45:06.662Z,34.17
2019-04-01T10:47:37.181Z,32.80
2019-04-01T10:50:08.585Z,30.43
2019-04-01T10:52:39.885Z,32.97
2019-04-01T10:55:10.295Z,29.63
2019-04-01T10:57:43.510Z,30.87
2019-04-01T11:00:12.895Z,31.57
2019-04-01T11:02:43.231Z,28.07
2019-04-01T11:05:13.544Z,31.57
2019-04-01T11:07:43.807Z,29.43
2019-04-01T11:10:15.237Z,29.83
2019-04-01T11:12:45.531Z,27.67
2019-04-01T11:15:17.842Z,28.10
2019-04-01T11:17:51.885Z,28.10
2019-04-01T11:20:22.514Z,26.03
2019-04-01T11:22:55.259Z,29.00
2019-04-01T11:25:25.696Z,26.83
2019-04-01T11:27:56.003Z,28.80
2019-04-01T11:30:27.746Z,26.97
2019-04-01T11:32:58.084Z,27.80
2019-04-01T11:35:28.862Z,27.83
2019-04-01T11:37:59.132Z,27.07
2019-04-01T11:40:29.538Z,27.07
2019-04-01T11:42:59.863Z,27.07
2019-04-01T11:45:30.286Z,26.10
2019-04-01T11:48:00.639Z,26.47
2019-04-01T11:50:30.913Z,25.47
2019-04-01T11:53:01.296Z,24.60
2019-04-01T11:55:31.621Z,27.20
2019-04-01T11:58:03.273Z,24.97
2019-04-01T12:00:36.160Z,24.83
2019-04-01T12:03:07.750Z,24.77
2019-04-01T12:05:40.265Z,23.03
2019-04-01T12:08:11.940Z,24.23
2019-04-01T12:10:43.965Z,26.20
2019-04-01T12:13:16.029Z,26.50
2019-04-01T12:15:47.673Z,23.42
2019-04-01T12:18:19.893Z,26.02
2019-04-01T12:20:51.047Z,26.68
2019-04-01T12:23:22.931Z,25.72
2019-04-01T12:25:54.559Z,25.48
2019-04-01T12:28:26.410Z,24.53
2019-04-01T12:30:57.730Z,24.87
2019-04-01T12:33:28.372Z,23.55
2019-04-01T12:35:58.843Z,23.15
2019-04-01T12:38:29.259Z,23.38
2019-04-01T12:40:59.639Z,22.15
2019-04-01T12:43:29.907Z,23.85
2019-04-01T12:46:00.227Z,23.80
2019-04-01T12:48:30.566Z,26.77
2019-04-01T12:51:00.890Z,23.45
2019-04-01T12:53:31.217Z,24.85
2019-04-01T12:56:01.565Z,22.40
2019-04-01T12:58:32.674Z,25.32
2019-04-01T13:01:03.041Z,24.70
2019-04-01T13:03:33.397Z,21.12
2019-04-01T13:06:03.811Z,23.38
2019-04-01T13:08:34.113Z,22.85
2019-04-01T13:11:04.458Z,22.52
2019-04-01T13:13:34.788Z,21.57
2019-04-01T13:16:05.075Z,21.95
2019-04-01T13:18:38.048Z,22.73
2019-04-01T13:21:07.342Z,20.17
2019-04-01T13:23:37.649Z,20.68
2019-04-01T13:26:08.132Z,21.57
2019-04-01T13:28:42.263Z,19.98
2019-04-01T13:31:11.889Z,20.82
2019-04-01T13:33:42.173Z,21.68
2019-04-01T13:36:12.517Z,21.62
2019-04-01T13:38:44.072Z,22.45
2019-04-01T13:41:16.122Z,22.40
2019-04-01T13:43:46.505Z,20.88
2019-04-01T13:46:16.857Z,19.98
2019-04-01T13:48:57.582Z,19.07
2019-04-01T13:51:19.351Z,19.10
2019-04-01T13:53:49.669Z,20.50
2019-04-01T13:56:20.063Z,19.32
2019-04-01T13:58:50.509Z,19.67
2019-04-01T14:01:22.049Z,21.23
2019-04-01T14:03:52.473Z,18.15
2019-04-01T14:06:23.344Z,19.62
2019-04-01T14:08:53.721Z,21.48
2019-04-01T14:11:24.168Z,20.25
2019-04-01T14:13:54.561Z,18.30
2019-04-01T14:16:25.976Z,18.60
2019-04-01T14:18:56.363Z,20.32
2019-04-01T14:21:26.954Z,18.10
2019-04-01T14:23:57.457Z,18.55
2019-04-01T14:26:29.561Z,19.32
2019-04-01T14:29:00.028Z,16.55
2019-04-01T14:31:30.634Z,18.40
2019-04-01T14:34:01.322Z,18.82
2019-04-01T14:36:33.515Z,19.17
2019-04-01T14:39:05.934Z,19.62
2019-04-01T14:41:37.453Z,19.37
2019-04-01T14:44:07.948Z,19.77
2019-04-01T14:46:39.342Z,19.92
2019-04-01T14:49:09.740Z,19.25
2019-04-01T14:51:40.111Z,17.57
2019-04-01T14:54:10.462Z,18.87
2019-04-01T14:56:40.906Z,17.23
2019-04-01T14:59:11.237Z,15.72
2019-04-01T15:01:41.858Z,16.93
2019-04-01T15:04:12.207Z,17.70
2019-04-01T15:06:42.675Z,17.40
2019-04-01T15:09:13.068Z,18.32
2019-04-01T15:11:43.552Z,18.95
2019-04-01T15:14:14.148Z,17.02
2019-04-01T15:16:45.362Z,17.40
2019-04-01T15:19:15.727Z,18.20
2019-04-01T15:21:47.499Z,19.52
2019-04-01T15:24:17.987Z,18.07
2019-04-01T15:26:48.515Z,18.45
2019-04-01T15:29:18.921Z,19.30
2019-04-01T15:31:49.310Z,18.90
2019-04-01T15:34:19.867Z,17.30
2019-04-01T15:36:50.336Z,17.92
2019-04-01T15:39:20.801Z,18.57
2019-04-01T15:41:51.260Z,18.45
2019-04-01T15:44:21.831Z,16.87
2019-04-01T15:46:52.219Z,17.57
2019-04-01T15:49:22.639Z,20.27
2019-04-01T15:51:54.308Z,18.55
2019-04-01T15:54:24.698Z,20.85
2019-04-01T15:56:55.087Z,20.30
2019-04-01T15:59:26.185Z,20.25
2019-04-01T16:01:56.628Z,19.75
2019-04-01T16:04:28.079Z,19.37
2019-04-01T16:06:59.938Z,18.32
2019-04-01T16:09:30.439Z,20.25
2019-04-01T16:12:00.766Z,18.30
2019-04-01T16:14:31.144Z,19.62
2019-04-01T16:17:01.546Z,20.97
2019-04-01T16:19:32.258Z,20.03
2019-04-01T16:22:02.691Z,21.30
2019-04-01T16:24:33.177Z,19.17
2019-04-01T16:27:04.518Z,21.90
2019-04-01T16:29:34.875Z,21.13
2019-04-01T16:32:05.270Z,20.70
2019-04-01T16:34:36.678Z,20.80
2019-04-01T16:37:07.076Z,19.80
2019-04-01T16:39:37.571Z,19.53
2019-04-01T16:42:07.963Z,19.50
2019-04-01T16:44:38.324Z,21.13
2019-04-01T16:47:10.109Z,20.50
2019-04-01T16:49:40.694Z,18.80
2019-04-01T16:52:11.093Z,19.33
2019-04-01T16:54:41.432Z,18.33
2019-04-01T16:57:14.632Z,20.03
2019-04-01T16:59:45.003Z,20.93
2019-04-01T17:02:18.202Z,20.43
2019-04-01T17:04:48.413Z,20.97
2019-04-01T17:07:19.789Z,20.73
2019-04-01T17:09:51.310Z,20.23
2019-04-01T17:12:22.456Z,21.67
2019-04-01T17:14:53.236Z,21.10
2019-04-01T17:17:23.567Z,25.27
2019-04-01T17:19:54.850Z,22.93
2019-04-01T17:22:25.199Z,22.57
2019-04-01T17:24:57.168Z,24.60
2019-04-01T17:27:27.653Z,24.23
2019-04-01T17:29:58.020Z,22.43
2019-04-01T17:32:28.432Z,22.97
2019-04-01T17:34:58.875Z,23.77
2019-04-01T17:37:29.301Z,22.97
2019-04-01T17:39:59.723Z,23.70
2019-04-01T17:42:30.107Z,24.60
2019-04-01T17:45:07.403Z,24.30
2019-04-01T17:47:37.883Z,24.43
2019-04-01T17:50:08.458Z,24.50
2019-04-01T17:52:39.770Z,23.90
2019-04-01T17:55:10.164Z,24.47
2019-04-01T17:57:40.507Z,25.40
2019-04-01T18:00:14.908Z,24.93
2019-04-01T18:02:45.431Z,25.50
2019-04-01T18:05:17.082Z,25.50
2019-04-01T18:07:47.427Z,25.83
2019-04-01T18:10:17.890Z,26.20
2019-04-01T18:12:48.664Z,27.83
2019-04-01T18:15:20.782Z,24.97
2019-04-01T18:17:51.232Z,24.73
2019-04-01T18:20:22.945Z,25.70
2019-04-01T18:22:53.281Z,26.77
2019-04-01T18:25:23.726Z,26.80
2019-04-01T18:27:54.196Z,30.00
2019-04-01T18:30:24.667Z,37.63
2019-04-01T18:32:55.547Z,27.13
2019-04-01T18:35:25.996Z,33.07
2019-04-01T18:37:56.446Z,59.63
2019-04-01T18:40:33.128Z,44.80
2019-04-01T18:42:59.989Z,29.27
2019-04-01T18:45:30.473Z,26.33
2019-04-01T18:48:00.927Z,25.20
2019-04-01T18:50:31.367Z,24.77
2019-04-01T18:53:01.696Z,24.63
2019-04-01T18:55:32.175Z,24.27
2019-04-01T18:58:02.528Z,24.70
2019-04-01T19:00:32.918Z,25.47
2019-04-01T19:03:03.291Z,25.23
2019-04-01T19:05:33.645Z,25.97
2019-04-01T19:08:04.392Z,25.73
2019-04-01T19:10:35.064Z,24.60
2019-04-01T19:13:07.572Z,24.33
2019-04-01T19:15:38.912Z,23.57
2019-04-01T19:18:11.125Z,23.37
2019-04-01T19:20:55.322Z,23.90
2019-04-01T19:23:13.881Z,23.10
2019-04-01T19:25:44.252Z,24.13
2019-04-01T19:28:14.610Z,23.20
2019-04-01T19:30:45.511Z,24.40
2019-04-01T19:33:17.708Z,24.90
2019-04-01T19:35:48.152Z,23.53
2019-04-01T19:38:21.225Z,25.30
2019-04-01T19:40:51.293Z,25.53
2019-04-01T19:43:22.426Z,26.13
2019-04-01T19:45:52.795Z,25.43
2019-04-01T19:48:23.441Z,25.63
2019-04-01T19:50:53.898Z,24.40
2019-04-01T19:53:24.703Z,24.97
2019-04-01T19:55:56.181Z,29.00
2019-04-01T19:58:26.507Z,28.87
2019-04-01T20:00:57.380Z,26.13
2019-04-01T20:03:27.723Z,24.60
2019-04-01T20:05:58.166Z,22.93
2019-04-01T20:08:29.602Z,22.70
2019-04-01T20:11:01.040Z,24.07
2019-04-01T20:13:31.406Z,23.80
2019-04-01T20:16:02.275Z,23.70
2019-04-01T20:18:32.753Z,24.47
2019-04-01T20:21:03.153Z,24.90
2019-04-01T20:23:33.495Z,26.77
2019-04-01T20:26:03.965Z,26.80
2019-04-01T20:28:34.323Z,28.23
2019-04-01T20:31:06.474Z,25.80
2019-04-01T20:33:37.300Z,27.50
2019-04-01T20:36:07.868Z,25.83
2019-04-01T20:38:38.223Z,24.87
2019-04-01T20:41:08.688Z,26.43
2019-04-01T20:43:39.079Z,36.63
2019-04-01T20:46:10.132Z,25.47
2019-04-01T20:48:41.441Z,26.27
2019-04-01T20:51:11.791Z,25.23
2019-04-01T20:53:42.219Z,24.83
2019-04-01T20:56:12.592Z,25.27
2019-04-01T20:58:42.989Z,25.10
2019-04-01T21:01:13.408Z,24.80
2019-04-01T21:03:43.878Z,25.00
2019-04-01T21:06:14.231Z,23.57
2019-04-01T21:08:44.712Z,25.07
2019-04-01T21:11:15.106Z,24.63
2019-04-01T21:13:45.532Z,24.50
2019-04-01T21:16:15.861Z,23.63
2019-04-01T21:18:48.018Z,23.40
2019-04-01T21:21:18.362Z,23.83
2019-04-01T21:23:48.724Z,24.77
2019-04-01T21:26:19.099Z,24.83
2019-04-01T21:28:49.468Z,24.30
2019-04-01T21:31:19.893Z,24.50
2019-04-01T21:33:50.802Z,24.40
2019-04-01T21:36:21.125Z,24.85
2019-04-01T21:38:51.615Z,23.47
2019-04-01T21:41:22.053Z,24.13
2019-04-01T21:43:52.769Z,23.57
2019-04-01T21:46:24.011Z,24.00
2019-04-01T21:48:54.455Z,24.27
2019-04-01T21:51:24.866Z,25.03
2019-04-01T21:53:55.240Z,23.97
2019-04-01T21:56:25.822Z,24.57
2019-04-01T21:58:56.271Z,26.00
2019-04-01T22:01:26.634Z,25.17
2019-04-01T22:03:57.035Z,25.10
2019-04-01T22:06:27.392Z,25.10
2019-04-01T22:08:57.769Z,25.60
2019-04-01T22:11:28.147Z,27.10
2019-04-01T22:13:58.565Z,25.67
2019-04-01T22:16:28.940Z,25.67
2019-04-01T22:18:59.341Z,25.50
2019-04-01T22:21:29.677Z,26.13
2019-04-01T22:24:00.068Z,26.17
2019-04-01T22:26:30.404Z,26.37
2019-04-01T22:29:00.772Z,26.33
2019-04-01T22:31:31.121Z,26.50
2019-04-01T22:34:01.502Z,25.20
2019-04-01T22:36:31.872Z,26.10
2019-04-01T22:39:02.244Z,24.97
2019-04-01T22:41:33.357Z,26.37
2019-04-01T22:44:03.724Z,26.07
2019-04-01T22:46:34.686Z,25.97
2019-04-01T22:49:05.315Z,26.40
2019-04-01T22:51:37.129Z,26.03
2019-04-01T22:54:07.636Z,26.70
2019-04-01T22:56:37.982Z,27.00
2019-04-01T22:59:08.394Z,26.60
2019-04-01T23:01:38.737Z,26.23
2019-04-01T23:04:09.536Z,26.33
2019-04-01T23:06:39.940Z,27.67
2019-04-01T23:09:10.325Z,27.17
2019-04-01T23:11:40.662Z,26.33
2019-04-01T23:14:12.160Z,27.13
2019-04-01T23:16:42.546Z,26.33
2019-04-01T23:19:12.928Z,27.03
2019-04-01T23:21:43.274Z,26.80
2019-04-01T23:24:13.775Z,26.57
2019-04-01T23:26:44.173Z,27.67
2019-04-01T23:29:14.611Z,28.23
2019-04-01T23:31:44.956Z,27.80
2019-04-01T23:34:15.342Z,28.57
2019-04-01T23:36:45.714Z,27.60
2019-04-01T23:39:16.086Z,27.70
2019-04-01T23:41:46.503Z,27.47
2019-04-01T23:44:16.870Z,27.13
2019-04-01T23:46:48.029Z,27.30
2019-04-01T23:49:18.595Z,27.20
2019-04-01T23:51:48.930Z,27.50
2019-04-01T23:54:19.298Z,26.20
2019-04-01T23:56:49.655Z,28.27
2019-04-01T23:59:20.164Z,28.00
